createdAt,value
2022-11-17T00:01:10.834Z,33.33
2022-11-17T00:03:44.031Z,35.00
2022-11-17T00:06:14.224Z,41.50
2022-11-17T00:08:43.091Z,38.20
2022-11-17T00:11:11.810Z,34.07
2022-11-17T00:13:58.012Z,35.23
2022-11-17T00:16:29.279Z,36.70
2022-11-17T00:19:16.800Z,35.47
2022-11-17T00:21:45.452Z,39.63
2022-11-17T00:24:17.807Z,35.63
2022-11-17T00:27:00.216Z,42.10
2022-11-17T00:29:29.206Z,40.17
2022-11-17T00:32:15.272Z,35.07
2022-11-17T00:34:49.040Z,39.47
2022-11-17T00:37:18.251Z,30.77
2022-11-17T00:39:46.921Z,37.70
2022-11-17T00:42:16.055Z,39.13
2022-11-17T00:44:44.960Z,36.33
2022-11-17T00:47:13.635Z,35.27
2022-11-17T00:49:42.274Z,39.50
2022-11-17T00:52:15.104Z,32.37
2022-11-17T00:54:43.775Z,40.63
2022-11-17T00:57:12.447Z,33.53
2022-11-17T00:59:41.062Z,35.90
2022-11-17T01:02:09.695Z,34.80
2022-11-17T01:04:38.301Z,34.20
2022-11-17T01:07:07.069Z,34.67
2022-11-17T01:09:37.867Z,29.97
2022-11-17T01:12:06.951Z,29.47
2022-11-17T01:14:35.631Z,29.07
2022-11-17T01:17:04.252Z,30.53
2022-11-17T01:19:32.874Z,32.57
2022-11-17T01:22:01.507Z,50.03
2022-11-17T01:24:30.360Z,30.43
2022-11-17T01:27:00.466Z,50.73
2022-11-17T01:29:29.097Z,32.07
2022-11-17T01:31:57.756Z,58.37
2022-11-17T01:34:26.437Z,39.53
2022-11-17T01:37:12.485Z,43.10
2022-11-17T01:39:41.152Z,47.37
2022-11-17T01:42:16.466Z,40.87
2022-11-17T01:44:59.413Z,41.63
2022-11-17T01:47:36.468Z,49.27
2022-11-17T01:50:11.605Z,53.67
2022-11-17T01:52:42.094Z,40.33
2022-11-17T01:55:12.430Z,42.03
2022-11-17T01:57:46.674Z,32.93
2022-11-17T02:00:16.262Z,46.07
2022-11-17T02:02:46.686Z,36.23
2022-11-17T02:05:28.960Z,42.07
2022-11-17T02:08:01.114Z,44.27
2022-11-17T02:10:32.973Z,48.00
2022-11-17T02:13:03.716Z,35.27
2022-11-17T02:15:32.377Z,36.90
2022-11-17T02:18:01.374Z,37.03
2022-11-17T02:20:43.139Z,31.63
2022-11-17T02:23:51.430Z,44.57
2022-11-17T02:26:57.458Z,58.77
2022-11-17T02:29:33.525Z,89.93
2022-11-17T02:32:08.428Z,51.80
2022-11-17T02:34:44.690Z,49.70
2022-11-17T02:37:21.992Z,39.67
2022-11-17T02:40:00.368Z,53.10
2022-11-17T02:42:49.430Z,44.17
2022-11-17T02:45:24.129Z,42.33
2022-11-17T02:47:56.173Z,40.23
2022-11-17T02:50:28.660Z,52.50
2022-11-17T02:52:57.727Z,35.47
2022-11-17T02:55:27.834Z,47.57
2022-11-17T02:57:56.379Z,42.00
2022-11-17T03:00:28.302Z,59.87
2022-11-17T03:03:16.698Z,62.07
2022-11-17T03:05:52.792Z,61.57
2022-11-17T03:08:33.267Z,69.67
2022-11-17T03:11:04.332Z,72.63
2022-11-17T03:13:45.036Z,46.40
2022-11-17T03:16:25.684Z,44.50
2022-11-17T03:19:06.373Z,44.70
2022-11-17T03:21:41.044Z,48.30
2022-11-17T03:24:16.882Z,47.57
2022-11-17T03:26:49.965Z,55.17
2022-11-17T03:29:22.429Z,48.80
2022-11-17T03:31:58.425Z,67.03
2022-11-17T03:34:31.375Z,60.40
2022-11-17T03:37:03.100Z,71.57
2022-11-17T03:39:35.486Z,70.73
2022-11-17T03:42:08.499Z,61.43
2022-11-17T03:44:41.212Z,70.63
2022-11-17T03:47:18.839Z,88.60
2022-11-17T03:49:53.032Z,72.53
2022-11-17T03:52:22.727Z,67.50
2022-11-17T03:54:51.524Z,65.97
2022-11-17T03:57:27.920Z,63.10
2022-11-17T04:00:01.317Z,61.57
2022-11-17T04:02:31.525Z,68.03
2022-11-17T04:05:09.271Z,81.13
2022-11-17T04:07:40.361Z,71.60
2022-11-17T04:10:11.069Z,75.93
2022-11-17T04:12:57.201Z,84.83
2022-11-17T04:15:43.397Z,56.27
2022-11-17T04:18:13.574Z,81.67
2022-11-17T04:20:42.178Z,63.00
2022-11-17T04:23:14.317Z,69.33
2022-11-17T04:26:01.597Z,65.20
2022-11-17T04:28:40.867Z,57.20
2022-11-17T04:31:12.437Z,62.90
2022-11-17T04:33:44.102Z,57.13
2022-11-17T04:36:14.246Z,67.93
2022-11-17T04:38:44.240Z,70.43
2022-11-17T04:41:31.656Z,88.47
2022-11-17T04:44:00.507Z,85.70
2022-11-17T04:46:30.747Z,69.63
2022-11-17T04:49:01.307Z,21.60
2022-11-17T04:51:31.131Z,40.33
2022-11-17T04:54:00.380Z,36.57
2022-11-17T04:56:30.133Z,35.87
2022-11-17T04:58:59.099Z,39.33
2022-11-17T05:01:29.489Z,29.97
2022-11-17T05:04:00.750Z,34.07
2022-11-17T05:06:32.253Z,30.57
2022-11-17T05:09:02.301Z,31.03
2022-11-17T05:11:49.205Z,33.43
2022-11-17T05:14:20.673Z,37.40
2022-11-17T05:17:10.048Z,37.13
2022-11-17T05:19:44.397Z,40.40
2022-11-17T05:22:32.374Z,27.95
2022-11-17T05:25:01.643Z,5.47
2022-11-17T05:27:30.399Z,15.30
2022-11-17T05:29:59.237Z,13.30
2022-11-17T05:32:27.800Z,29.03
2022-11-17T05:34:57.877Z,27.57
2022-11-17T05:37:26.581Z,24.57
2022-11-17T05:39:57.208Z,28.20
2022-11-17T05:42:25.801Z,40.22
2022-11-17T05:44:54.816Z,17.80
2022-11-17T05:47:23.371Z,32.50
2022-11-17T05:49:51.928Z,23.93
2022-11-17T05:52:22.050Z,16.38
2022-11-17T05:54:50.780Z,13.67
2022-11-17T05:57:25.772Z,31.20
2022-11-17T06:00:00.841Z,29.37
2022-11-17T06:02:35.029Z,25.70
2022-11-17T06:05:04.278Z,29.60
2022-11-17T06:07:36.194Z,32.47
2022-11-17T06:10:05.197Z,34.83
2022-11-17T06:12:34.421Z,30.13
2022-11-17T06:15:03.722Z,36.07
2022-11-17T06:17:38.801Z,34.93
2022-11-17T06:20:11.257Z,32.60
2022-11-17T06:22:45.500Z,33.20
2022-11-17T06:25:18.478Z,38.33
2022-11-17T06:27:48.671Z,36.10
2022-11-17T06:30:18.117Z,33.83
2022-11-17T06:32:48.079Z,33.77
2022-11-17T06:35:17.662Z,35.30
2022-11-17T06:37:47.879Z,26.07
2022-11-17T06:40:17.633Z,36.67
2022-11-17T06:43:03.736Z,36.07
2022-11-17T06:45:35.070Z,58.33
2022-11-17T06:48:04.450Z,92.33
2022-11-17T06:50:33.719Z,110.47
2022-11-17T06:53:06.502Z,101.13
2022-11-17T06:55:37.028Z,113.73
2022-11-17T06:58:07.965Z,123.87
2022-11-17T07:00:37.905Z,130.10
2022-11-17T07:03:09.429Z,127.93
2022-11-17T07:05:40.422Z,108.47
2022-11-17T07:08:11.180Z,105.40
2022-11-17T07:10:42.632Z,102.13
2022-11-17T07:13:13.584Z,129.10
2022-11-17T07:15:42.575Z,158.63
2022-11-17T07:18:11.183Z,131.10
2022-11-17T07:20:40.029Z,118.73
2022-11-17T07:23:10.053Z,134.33
2022-11-17T07:25:38.773Z,119.37
2022-11-17T07:28:08.550Z,156.57
2022-11-17T07:30:37.358Z,142.07
2022-11-17T07:33:06.416Z,132.80
2022-11-17T07:35:38.634Z,103.37
2022-11-17T07:38:07.220Z,157.43
2022-11-17T07:40:37.375Z,170.93
2022-11-17T07:43:06.052Z,137.40
2022-11-17T07:45:34.994Z,151.27
2022-11-17T07:48:06.065Z,132.80
2022-11-17T07:50:37.295Z,146.73
2022-11-17T07:53:05.943Z,148.90
2022-11-17T07:55:34.687Z,139.43
2022-11-17T07:58:05.034Z,161.27
2022-11-17T08:00:34.042Z,125.33
2022-11-17T08:03:04.282Z,166.67
2022-11-17T08:05:37.075Z,169.37
2022-11-17T08:08:09.572Z,140.03
2022-11-17T08:10:38.150Z,159.53
2022-11-17T08:13:08.233Z,168.30
2022-11-17T08:15:36.969Z,141.93
2022-11-17T08:18:06.503Z,147.17
2022-11-17T08:20:35.052Z,146.37
2022-11-17T08:23:03.655Z,153.00
2022-11-17T08:25:32.277Z,160.77
2022-11-17T08:28:00.931Z,152.77
2022-11-17T08:30:33.740Z,160.37
2022-11-17T08:33:02.477Z,149.00
2022-11-17T08:35:37.296Z,144.30
2022-11-17T08:38:06.332Z,142.83
2022-11-17T08:40:35.469Z,143.00
2022-11-17T08:43:04.224Z,153.90
2022-11-17T08:45:34.374Z,165.10
2022-11-17T08:48:04.306Z,158.07
2022-11-17T08:50:32.953Z,158.67
2022-11-17T08:53:01.498Z,162.77
2022-11-17T08:55:30.200Z,139.50
2022-11-17T08:57:58.851Z,156.50
2022-11-17T09:00:27.594Z,173.77
2022-11-17T09:02:57.618Z,158.80
2022-11-17T09:05:26.331Z,167.93
2022-11-17T09:07:55.126Z,144.83
2022-11-17T09:10:23.818Z,169.47
2022-11-17T09:12:56.070Z,159.03
2022-11-17T09:15:25.110Z,130.70
2022-11-17T09:17:54.005Z,25.98
2022-11-17T09:20:24.249Z,27.83
2022-11-17T09:22:52.987Z,45.77
2022-11-17T09:25:21.782Z,53.83
2022-11-17T09:27:52.704Z,58.80
2022-11-17T09:30:22.593Z,116.63
2022-11-17T09:32:51.784Z,164.17
2022-11-17T09:35:20.711Z,187.93
2022-11-17T09:37:50.718Z,175.57
2022-11-17T09:40:21.322Z,201.37
2022-11-17T09:42:50.117Z,195.73
2022-11-17T09:45:23.242Z,179.53
2022-11-17T09:48:12.310Z,174.87
2022-11-17T09:50:42.859Z,213.40
2022-11-17T09:53:21.181Z,194.40
2022-11-17T09:55:52.512Z,184.47
2022-11-17T09:58:31.861Z,164.40
2022-11-17T10:01:00.706Z,172.57
2022-11-17T10:03:33.030Z,118.13
2022-11-17T10:06:07.368Z,154.60
2022-11-17T10:08:41.775Z,136.50
2022-11-17T10:11:27.652Z,145.20
2022-11-17T10:13:56.389Z,181.97
2022-11-17T10:16:25.153Z,119.87
2022-11-17T10:18:53.779Z,178.27
2022-11-17T10:21:22.451Z,139.47
2022-11-17T10:23:58.591Z,93.60
2022-11-17T10:26:28.251Z,115.47
2022-11-17T10:29:10.433Z,116.53
2022-11-17T10:31:44.077Z,97.50
2022-11-17T10:34:14.401Z,99.37
2022-11-17T10:36:50.208Z,58.23
2022-11-17T10:39:38.360Z,66.93
2022-11-17T10:42:22.559Z,50.80
2022-11-17T10:44:55.556Z,52.47
2022-11-17T10:47:32.999Z,53.60
2022-11-17T10:50:23.988Z,91.30
2022-11-17T10:52:54.462Z,41.30
2022-11-17T10:55:28.727Z,58.87
2022-11-17T10:58:02.429Z,117.90
2022-11-17T11:00:33.700Z,149.90
2022-11-17T11:03:08.436Z,73.27
2022-11-17T11:05:37.348Z,104.93
2022-11-17T11:08:20.236Z,142.47
2022-11-17T11:10:52.910Z,98.10
2022-11-17T11:13:27.504Z,47.83
2022-11-17T11:15:56.576Z,101.47
2022-11-17T11:18:25.519Z,68.20
2022-11-17T11:21:01.343Z,72.40
2022-11-17T11:23:42.144Z,40.67
2022-11-17T11:26:23.364Z,34.30
2022-11-17T11:29:06.769Z,32.67
2022-11-17T11:31:49.675Z,118.87
2022-11-17T11:34:37.097Z,43.90
2022-11-17T11:37:10.960Z,127.47
2022-11-17T11:39:49.687Z,60.07
2022-11-17T11:42:35.280Z,59.27
2022-11-17T11:45:20.315Z,75.73
2022-11-17T11:48:21.590Z,34.90
2022-11-17T11:50:59.965Z,33.87
2022-11-17T11:53:39.432Z,40.73
2022-11-17T11:56:17.724Z,27.90
2022-11-17T11:58:57.594Z,70.00
2022-11-17T12:01:37.485Z,53.93
2022-11-17T12:04:23.502Z,29.40
2022-11-17T12:07:07.182Z,20.37
2022-11-17T12:09:58.400Z,21.43
2022-11-17T12:12:54.188Z,20.13
2022-11-17T12:15:40.957Z,22.20
2022-11-17T12:18:19.049Z,19.97
2022-11-17T12:20:57.570Z,21.97
2022-11-17T12:23:55.900Z,21.97
2022-11-17T12:26:27.748Z,20.53
2022-11-17T12:29:33.216Z,22.17
2022-11-17T12:32:04.350Z,16.13
2022-11-17T12:34:37.818Z,20.53
2022-11-17T12:37:28.683Z,19.53
2022-11-17T12:40:03.207Z,23.20
2022-11-17T12:42:33.226Z,22.73
2022-11-17T12:45:04.103Z,19.80
2022-11-17T12:47:41.015Z,16.67
2022-11-17T12:50:43.458Z,17.90
2022-11-17T12:53:33.997Z,23.67
2022-11-17T12:56:42.285Z,22.73
2022-11-17T12:59:40.800Z,25.87
2022-11-17T13:02:24.608Z,27.57
2022-11-17T13:04:59.835Z,40.50
2022-11-17T13:07:28.893Z,64.60
2022-11-17T13:09:59.351Z,40.53
2022-11-17T13:12:31.823Z,60.57
2022-11-17T13:15:03.135Z,49.33
2022-11-17T13:17:34.821Z,55.73
2022-11-17T13:20:20.655Z,33.07
2022-11-17T13:23:01.191Z,36.37
2022-11-17T13:25:30.049Z,41.47
2022-11-17T13:28:04.431Z,25.20
2022-11-17T13:30:34.925Z,43.53
2022-11-17T13:33:05.102Z,33.07
2022-11-17T13:35:37.376Z,39.50
2022-11-17T13:38:08.334Z,44.33
2022-11-17T13:40:38.436Z,37.53
2022-11-17T13:43:08.907Z,39.20
2022-11-17T13:45:37.951Z,34.13
2022-11-17T13:48:06.811Z,34.97
2022-11-17T13:50:39.750Z,27.23
2022-11-17T13:53:24.935Z,37.43
2022-11-17T13:55:54.837Z,31.60
2022-11-17T13:58:36.084Z,24.57
2022-11-17T14:01:05.151Z,25.23
2022-11-17T14:03:36.476Z,73.37
2022-11-17T14:06:09.097Z,57.77
2022-11-17T14:08:39.478Z,45.43
2022-11-17T14:11:23.315Z,41.63
2022-11-17T14:13:54.306Z,94.77
2022-11-17T14:16:30.182Z,42.47
2022-11-17T14:19:02.213Z,38.53
2022-11-17T14:21:38.179Z,46.77
2022-11-17T14:24:12.382Z,54.83
2022-11-17T14:26:45.104Z,55.80
2022-11-17T14:29:14.982Z,62.90
2022-11-17T14:31:43.698Z,58.70
2022-11-17T14:34:12.901Z,54.63
2022-11-17T14:36:43.271Z,37.13
2022-11-17T14:39:19.474Z,56.37
2022-11-17T14:41:49.431Z,61.17
2022-11-17T14:44:18.666Z,49.93
2022-11-17T14:46:47.285Z,58.87
2022-11-17T14:49:16.534Z,44.80
2022-11-17T14:51:50.091Z,34.33
2022-11-17T14:54:18.729Z,43.50
2022-11-17T14:56:47.556Z,28.87
2022-11-17T14:59:16.927Z,25.87
2022-11-17T15:01:45.779Z,24.37
2022-11-17T15:04:48.319Z,50.90
2022-11-17T15:07:06.827Z,97.33
2022-11-17T15:09:35.634Z,94.30
2022-11-17T15:12:04.402Z,114.13
2022-11-17T15:14:33.035Z,187.40
2022-11-17T15:17:01.596Z,273.20
2022-11-17T15:19:30.516Z,221.27
2022-11-17T15:21:59.441Z,157.70
2022-11-17T15:24:29.457Z,177.27
2022-11-17T15:26:58.187Z,201.37
2022-11-17T15:29:26.801Z,201.90
2022-11-17T15:31:55.496Z,219.37
2022-11-17T15:34:24.194Z,170.43
2022-11-17T15:36:53.237Z,99.30
2022-11-17T15:39:22.087Z,86.53
2022-11-17T15:41:53.304Z,140.87
2022-11-17T15:44:21.918Z,89.90
2022-11-17T15:46:50.835Z,117.00
2022-11-17T15:49:19.720Z,107.07
2022-11-17T15:51:48.467Z,110.47
2022-11-17T15:54:20.712Z,109.23
2022-11-17T15:56:52.333Z,67.17
2022-11-17T15:59:21.953Z,85.57
2022-11-17T16:01:50.978Z,96.80
2022-11-17T16:04:19.658Z,112.40
2022-11-17T16:06:48.612Z,109.63
2022-11-17T16:09:17.715Z,150.07
2022-11-17T16:11:47.066Z,163.00
2022-11-17T16:14:17.170Z,188.60
2022-11-17T16:16:48.082Z,197.63
2022-11-17T16:19:17.111Z,187.80
2022-11-17T16:21:46.298Z,186.23
2022-11-17T16:24:15.403Z,177.70
2022-11-17T16:26:46.145Z,138.83
2022-11-17T16:29:14.975Z,155.13
2022-11-17T16:31:45.546Z,149.63
2022-11-17T16:34:18.278Z,157.67
2022-11-17T16:36:49.820Z,107.43
2022-11-17T16:39:22.224Z,146.43
2022-11-17T16:41:55.015Z,153.93
2022-11-17T16:44:26.248Z,117.00
2022-11-17T16:46:57.059Z,127.00
2022-11-17T16:49:32.023Z,176.93
2022-11-17T16:52:00.971Z,99.43
2022-11-17T16:54:32.630Z,50.10
2022-11-17T16:57:01.351Z,43.17
2022-11-17T16:59:30.013Z,45.63
2022-11-17T17:02:00.141Z,60.37
2022-11-17T17:04:31.475Z,53.70
2022-11-17T17:07:00.583Z,43.23
2022-11-17T17:09:31.627Z,48.53
2022-11-17T17:12:00.344Z,70.03
2022-11-17T17:14:29.017Z,100.93
2022-11-17T17:16:57.753Z,93.30
2022-11-17T17:19:28.007Z,163.53
2022-11-17T17:21:57.383Z,129.70
2022-11-17T17:24:26.463Z,202.70
2022-11-17T17:26:55.209Z,121.80
2022-11-17T17:29:23.968Z,123.30
2022-11-17T17:31:52.755Z,149.27
2022-11-17T17:34:21.556Z,110.13
2022-11-17T17:36:51.734Z,122.83
2022-11-17T17:39:20.430Z,91.53
2022-11-17T17:41:49.110Z,218.40
2022-11-17T17:44:19.799Z,86.20
2022-11-17T17:46:48.983Z,112.50
2022-11-17T17:49:19.202Z,112.13
2022-11-17T17:51:48.329Z,118.27
2022-11-17T17:54:20.343Z,105.93
2022-11-17T17:56:49.509Z,146.27
2022-11-17T17:59:18.390Z,179.40
2022-11-17T18:01:48.302Z,182.33
2022-11-17T18:04:17.457Z,130.63
2022-11-17T18:06:48.341Z,137.77
2022-11-17T18:09:20.638Z,132.80
2022-11-17T18:11:51.345Z,79.17
2022-11-17T18:14:24.331Z,124.43
2022-11-17T18:16:53.470Z,133.90
2022-11-17T18:19:22.436Z,158.80
2022-11-17T18:21:51.600Z,122.83
2022-11-17T18:24:21.753Z,83.17
2022-11-17T18:26:50.385Z,86.30
2022-11-17T18:29:20.213Z,116.20
2022-11-17T18:31:49.781Z,79.03
2022-11-17T18:34:21.236Z,90.67
2022-11-17T18:36:50.366Z,96.83
2022-11-17T18:39:21.463Z,68.47
2022-11-17T18:41:53.615Z,81.13
2022-11-17T18:44:22.677Z,65.43
2022-11-17T18:46:51.808Z,73.70
2022-11-17T18:49:20.733Z,73.87
2022-11-17T18:51:49.877Z,62.30
2022-11-17T18:54:18.634Z,70.43
2022-11-17T18:56:50.281Z,66.40
2022-11-17T18:59:19.406Z,68.23
2022-11-17T19:01:48.300Z,65.33
2022-11-17T19:04:18.422Z,60.23
2022-11-17T19:06:48.249Z,68.70
2022-11-17T19:09:18.121Z,65.77
2022-11-17T19:11:49.098Z,58.47
2022-11-17T19:14:17.888Z,50.67
2022-11-17T19:16:46.595Z,53.13
2022-11-17T19:19:16.142Z,46.10
2022-11-17T19:21:45.901Z,47.03
2022-11-17T19:24:15.421Z,46.57
2022-11-17T19:26:44.268Z,46.77
2022-11-17T19:29:17.454Z,49.23
2022-11-17T19:31:47.141Z,52.37
2022-11-17T19:34:16.194Z,45.30
2022-11-17T19:36:45.458Z,46.67
2022-11-17T19:39:15.415Z,43.63
2022-11-17T19:41:45.422Z,44.13
2022-11-17T19:44:15.965Z,49.27
2022-11-17T19:46:44.617Z,52.10
2022-11-17T19:49:13.658Z,52.60
2022-11-17T19:51:43.018Z,52.23
2022-11-17T19:54:13.719Z,45.70
2022-11-17T19:56:42.314Z,46.73
2022-11-17T19:59:15.635Z,44.00
2022-11-17T20:01:47.338Z,40.23
2022-11-17T20:04:16.203Z,42.00
2022-11-17T20:06:45.188Z,40.40
2022-11-17T20:09:15.987Z,41.80
2022-11-17T20:11:45.177Z,44.50
2022-11-17T20:14:14.673Z,46.27
2022-11-17T20:16:43.458Z,47.67
2022-11-17T20:19:17.616Z,43.30
2022-11-17T20:21:48.495Z,46.67
2022-11-17T20:24:17.162Z,46.70
2022-11-17T20:26:46.512Z,47.53
2022-11-17T20:29:15.433Z,49.70
2022-11-17T20:31:44.323Z,54.60
2022-11-17T20:34:14.682Z,56.00
2022-11-17T20:36:45.253Z,56.67
2022-11-17T20:39:15.940Z,50.50
2022-11-17T20:41:44.874Z,52.30
2022-11-17T20:44:24.994Z,45.10
2022-11-17T20:46:55.308Z,55.10
2022-11-17T20:49:24.344Z,40.20
2022-11-17T20:51:54.448Z,40.80
2022-11-17T20:54:23.709Z,41.57
2022-11-17T20:56:52.402Z,47.97
2022-11-17T20:59:21.383Z,43.77
2022-11-17T21:01:50.739Z,41.30
2022-11-17T21:04:19.496Z,44.43
2022-11-17T21:06:48.958Z,48.55
2022-11-17T21:09:19.571Z,36.97
2022-11-17T21:12:00.720Z,38.45
2022-11-17T21:14:31.087Z,51.33
2022-11-17T21:17:01.747Z,38.03
2022-11-17T21:19:32.347Z,38.93
2022-11-17T21:22:02.961Z,38.80
2022-11-17T21:24:33.139Z,36.10
2022-11-17T21:27:04.721Z,35.53
2022-11-17T21:29:35.487Z,29.40
2022-11-17T21:32:04.121Z,35.17
2022-11-17T21:34:36.421Z,58.07
2022-11-17T21:37:05.916Z,41.70
2022-11-17T21:39:39.614Z,38.83
2022-11-17T21:42:22.032Z,43.08
2022-11-17T21:44:57.275Z,31.05
2022-11-17T21:47:26.185Z,48.80
2022-11-17T21:49:58.891Z,45.47
2022-11-17T21:52:27.504Z,35.30
2022-11-17T21:54:58.875Z,35.33
2022-11-17T21:57:33.377Z,29.30
2022-11-17T22:00:02.047Z,30.17
2022-11-17T22:02:35.405Z,35.90
2022-11-17T22:05:04.366Z,31.27
2022-11-17T22:07:35.302Z,36.77
2022-11-17T22:10:08.970Z,37.30
2022-11-17T22:12:38.234Z,35.43
2022-11-17T22:15:11.768Z,34.57
2022-11-17T22:17:40.876Z,34.50
2022-11-17T22:20:11.301Z,38.67
2022-11-17T22:22:40.165Z,40.77
2022-11-17T22:25:37.606Z,36.17
2022-11-17T22:27:59.795Z,39.67
2022-11-17T22:30:28.550Z,39.17
2022-11-17T22:32:57.322Z,39.30
2022-11-17T22:35:26.897Z,49.80
2022-11-17T22:37:55.599Z,48.77
2022-11-17T22:40:25.844Z,48.07
2022-11-17T22:42:54.577Z,42.20
2022-11-17T22:45:23.323Z,38.47
2022-11-17T22:47:51.912Z,44.70
2022-11-17T22:50:20.657Z,48.37
2022-11-17T22:52:49.357Z,45.03
2022-11-17T22:55:18.110Z,46.93
2022-11-17T22:57:48.268Z,57.27
2022-11-17T23:00:18.277Z,44.07
2022-11-17T23:02:47.033Z,48.13
2022-11-17T23:05:15.808Z,43.17
2022-11-17T23:07:44.921Z,44.30
2022-11-17T23:10:14.324Z,39.17
2022-11-17T23:12:43.259Z,28.90
2022-11-17T23:15:13.548Z,31.30
2022-11-17T23:17:43.007Z,31.70
2022-11-17T23:20:12.456Z,29.17
2022-11-17T23:22:41.205Z,27.83
2022-11-17T23:25:10.531Z,29.33
2022-11-17T23:27:39.270Z,24.27
2022-11-17T23:30:09.054Z,27.83
2022-11-17T23:32:39.129Z,26.93
2022-11-17T23:35:08.700Z,29.87
2022-11-17T23:37:40.303Z,28.77
2022-11-17T23:40:10.324Z,29.70
2022-11-17T23:42:43.112Z,31.10
2022-11-17T23:45:13.239Z,28.67
2022-11-17T23:47:43.349Z,30.00
2022-11-17T23:50:12.182Z,27.10
2022-11-17T23:52:40.985Z,26.57
2022-11-17T23:55:10.028Z,30.33
2022-11-17T23:57:38.667Z,29.70
